ראשי / חיפושים אחרונים

חיפושים אחרונים

לוחית
סוג רכב
דגם
שנה
תאריך חיפוש
שעת חיפוש
2572100 מרצדס בנץ גרמנ - 1993 01/09/2026 05:16:28
8315370 אאודי גרמניה AUDI A3 2010 01/09/2026 05:16:25
4233070 סוזוקי-יפן SX4 2010 01/09/2026 05:16:24
55605803 ימהה אינדונזיה - 2023 01/09/2026 05:16:23
21948003 טויוטה צ'כיה AYGO X 2022 01/09/2026 05:16:21
29989604 ב מ וו ארהב" X3 XDRIVE30E 2025 01/09/2026 05:16:20
28392304 מרצדס בנץ גרמנ - 2025 01/09/2026 05:16:20
70178603 בי ווי די סין ATTO 3 2024 01/09/2026 05:16:18
88317001 יונדאי טורקיה I20 2020 01/09/2026 05:16:17
79068701 הונדה תאילנד - 2020 01/09/2026 05:16:13
26409603 סקודה צ'כיה OCTAVIA 2023 01/09/2026 05:16:12
5575285 קיה סלובקיה SPORTAGE 2017 01/09/2026 05:16:11
61548502 מרצדס בנץ גרמנ - 2022 01/09/2026 05:16:08
5134358 קרייזלר מכסיקו - 2014 01/09/2026 05:16:08
3252227 פיאט איטליה פונטו 57 XS 1998 01/09/2026 05:16:08
62100702 יונדאי קוריאה הדרומית IONIQ HYBRID 2021 01/09/2026 05:16:03
17944803 סובארו יפן XV 2022 01/09/2026 05:16:02
62086404 טסלה סין MODEL 3 2026 01/09/2026 05:16:02
6401174 יונדאי הודו I10 2011 01/09/2026 05:15:59
81172804 יונדאי קוריאה הדרומית KONA HYBRID 2026 01/09/2026 05:15:58
43707603 קיה קוריאה הדרומית NIRO PLUS PHEV 2023 01/09/2026 05:15:53
1326167 פיאט איטליה BRAVO 1.4 2009 01/09/2026 05:15:49
42925603 יונדאי קוריאה הדרומית VENUE 2023 01/09/2026 05:15:48
14276504 בי ווי די סין SEAL U 2024 01/09/2026 05:15:47
79529902 מזדה תאילנד MAZDA 2 2022 01/09/2026 05:15:46
51945704 יונדאי קוריאה הדרומית ELANTRA N 2026 01/09/2026 05:15:43
81295201 טויוטה טורקיה C-HR HYBRID 2019 01/09/2026 05:15:40
1623837 טויוטה בריטניה AURIS HYBRID 2016 01/09/2026 05:15:40
1122375 סיטרואן צרפת C3 2011 01/09/2026 05:15:39
18325403 סקיוול סין ET5 2022 01/09/2026 05:15:38
46165302 מרצדס הונגריה AMG A45S 2021 01/09/2026 05:15:38
9154401 מ א ן גרמניה - 2007 01/09/2026 05:15:36
1746173 מיצובישי יפן GRANDIS 2010 01/09/2026 05:15:36
1905336 פיג'ו צרפת 306 2002 01/09/2026 05:15:33
1025171 פולקסווגן גרמניה GOLF 2010 01/09/2026 05:15:33
64707201 סיטרואן ספרד BERLINGO 2019 01/09/2026 05:15:30
3406078 וולבו בלגיה S60 T5 2011 01/09/2026 05:15:28
1271630 סובארו יפן XV 2014 01/09/2026 05:15:28
2663873 יונדאי צ'כיה I30 2010 01/09/2026 05:15:28
18988604 קרייזלר מכסיקו - 2025 01/09/2026 05:15:23
80216802 שברולט קוריאה הדרומית SPARK 2022 01/09/2026 05:15:21
1563876 פורד בלגיה MONDEO 2013 01/09/2026 05:15:20
4382054 סקודה צ'כיה OCTAVIA 2015 01/09/2026 05:15:18
60708002 ג'יפ איטליה COMPASS 2021 01/09/2026 05:15:17
5057067 דייהטסו יפן .SIRION 2008 01/09/2026 05:15:16
37744802 פורד ארהב" - 2021 01/09/2026 05:15:16
1617538 פולקסווגן גרמנ - 2015 01/09/2026 05:15:13
1038739 דאף אנגליה - 2017 01/09/2026 05:15:09
1315730 סובארו יפן IMPREZA 2014 01/09/2026 05:15:08
8368379 טויוטה תאילנד HILUX 2012 01/09/2026 05:15:06
79363002 מזדה תאילנד MAZDA 2 2022 01/09/2026 05:15:04
1270037 טויוטה יפן RAV 4 HYBRID 2016 01/09/2026 05:15:03
1809829 רנו ספרד מגאן NR 6.1 אוטו 5 ד 1997 01/09/2026 05:15:00
17690503 קיה קוריאה הדרומית SELTOS 2022 01/09/2026 05:14:59
92325101 פורשה גרמניה - 2021 01/09/2026 05:14:58
4662370 סאן יאנג טיואן - 2009 01/09/2026 05:14:58
71838701 שברולט קוריאה הדרומית SPARK 2020 01/09/2026 05:14:54
38756301 סקודה צ'כיה KODIAQ 2018 01/09/2026 05:14:53
31006203 טסלה ארהב" MODEL S 2022 01/09/2026 05:14:52
45771704 אופל צרפת MOKKA 2025 01/09/2026 05:14:52
90467701 לינקולן ארהב" - 2017 01/09/2026 05:14:50
3798169 מזדה יפן MAZDA 3 SPORT 2009 01/09/2026 05:14:48
4560972 איסוזו תאילנד PICK-UP 2010 01/09/2026 05:14:47
5906870 הונדה טורקיה CIVIC 2009 01/09/2026 05:14:45
6554023 הונדה יפן CR-V 2000 01/09/2026 05:14:44
1235430 סובארו יפן XV 2014 01/09/2026 05:14:43
2422780 סקודה צ'כיה OCTAVIA 2017 01/09/2026 05:14:38
64707201 סיטרואן ספרד BERLINGO 2019 01/09/2026 05:14:38
5679237 מרצדס בנץ גרמנ - 2016 01/09/2026 05:14:35
66636602 חרש אשדוד - 2021 01/09/2026 05:14:33
4259450 פולקסווגן גרמניה PASSAT 2003 01/09/2026 05:14:30
8199712 סיטרואן סלובקיה C3 PICASSO 2013 01/09/2026 05:14:30
83309304 מרצדס גרמניה AMG CLE53 4M 2026 01/09/2026 05:14:28
12592303 סאן יאנג טיואן - 2022 01/09/2026 05:14:28
1063760 טויוטה יפן COROLLA 2006 01/09/2026 05:14:27
75426403 טויוטה טורקיה C-HR 2024 01/09/2026 05:14:26
4252962 מזדה יפן MAZDA 6 2007 01/09/2026 05:14:23
6602853 סיאט ספרד IBIZA 2014 01/09/2026 05:14:18
4227752 וינגולד-גרורים - 2015 01/09/2026 05:14:18
9572264 סוזוקי יפן SWIFT 2008 01/09/2026 05:14:16
1452073 מיצובישי יפן GRANDIS 2010 01/09/2026 05:14:14
4236230 אלפא רומיאו איטליה ALFA GIULIETTA 2014 01/09/2026 05:14:13
1431030 סובארו יפן IMPREZA 2015 01/09/2026 05:14:10
33861602 גלובל הנדסה - 2021 01/09/2026 05:14:10
14800104 מזדה תאילנד MAZDA 2 2025 01/09/2026 05:14:09
8443813 יונדאי קוריאה הדרומית VELOSTER 2012 01/09/2026 05:14:08
59977704 קופרה ספרד FORMENTOR 2026 01/09/2026 05:14:04
77529302 טסלה סין MODEL 3 2021 01/09/2026 05:14:03
1422111 יונדאי טורקיה I20 2013 01/09/2026 05:14:01
4664365 סיטרואן צרפת C4 2008 01/09/2026 05:13:58
16368501 מיצובישי תאילנד SPACE STAR 2017 01/09/2026 05:13:55
3299165 מיצובישי יפן LANCER 2008 01/09/2026 05:13:54
83833702 סיאט ספרד CUPRA 2022 01/09/2026 05:13:53
60443902 סיאט ספרד IBIZA 2021 01/09/2026 05:13:52
28590703 סקניה-הולנד - 2023 01/09/2026 05:13:49
47838502 קואנג יאנג טיו - 2021 01/09/2026 05:13:47
18596501 רנו טורקיה GRAND COUPE 2017 01/09/2026 05:13:46
2836031 יונדאי טורקיה I20 2014 01/09/2026 05:13:43
30094501 ב מ וו גרמניה M240I 2018 01/09/2026 05:13:42
79152001 וולבו צרפת - 2021 01/09/2026 05:13:41
8165452 הונדה בריטניה CIVIC 2014 01/09/2026 05:13:40
29699901 מזדה יפן CX-5 2019 01/09/2026 05:13:38
6225171 מזדה יפן MAZDA 3 SPORT 2011 01/09/2026 05:13:38
4264357 סיטרואן ספרד BERLINGO 2005 01/09/2026 05:13:35
68871303 קיי גי מוביליט REXTON 2024 01/09/2026 05:13:35
1012189 גולדן דרגון סי - 2017 01/09/2026 05:13:34
9386675 טויוטה קנדה - 2013 01/09/2026 05:13:34
1809752 טויוטה תאילנד HILUX 2013 01/09/2026 05:13:33
9975612 וולבו בלגיה - 2013 01/09/2026 05:13:32
26774202 קרייזלר ארהב" WRANGLER UNLIMI 2021 01/09/2026 05:13:32
1111638 סוזוקי הונגריה VITARA 2016 01/09/2026 05:13:29
40632604 קיה קוריאה הדרומית PICANTO 2025 01/09/2026 05:13:28
5030039 פולאריס פולין - 2017 01/09/2026 05:13:26
56957001 נגררי אשקלון - 2018 01/09/2026 05:13:25
6964079 טויוטה צרפת YARIS 2012 01/09/2026 05:13:23
4585734 אופל גרמניה INSIGNIA 2015 01/09/2026 05:13:20
61094801 ב מ וו גרמניה 118I 2020 01/09/2026 05:13:18
74455902 מזדה יפן MAZDA 6 2021 01/09/2026 05:13:18
47966103 מיצובישי יפן OUTLANDER 2023 01/09/2026 05:13:16
92207701 פורד ארהב" - 2019 01/09/2026 05:13:16
92207701 פורד ארהב" - 2019 01/09/2026 05:13:16
92207701 פורד ארהב" - 2019 01/09/2026 05:13:15
16055003 מרצדס ארהב" GLE400D COUPE 2022 01/09/2026 05:13:12
1028723 סובארו יפן אימפרזה 0061 TA 1997 01/09/2026 05:13:12
32900104 ב מ וו גרמניה M3 COMPETITION 2025 01/09/2026 05:13:11
92207701 פורד ארהב" - 2019 01/09/2026 05:13:11
4660433 קיה קוריאה הדרומית PICANTO 2015 01/09/2026 05:13:10
79158301 רנו צרפת - 2020 01/09/2026 05:13:08
59408101 ב מ וו גרמניה X1 SDRIVE18I 2019 01/09/2026 05:13:07
25971003 איסוזו יפן - 2023 01/09/2026 05:13:07
4171731 מיצובישי תאילנד SPACE STAR 2014 01/09/2026 05:13:06
7445011 מזדה יפן MAZDA 3 2014 01/09/2026 05:13:02
61889104 זיקר סין ZEEKR 7X 2026 01/09/2026 05:13:02
70438403 פיג'ו צרפת 5008 2024 01/09/2026 05:12:57
43874502 טויוטה טורקיה COROLLA HSD SDN 2021 01/09/2026 05:12:55
8703032 איסוזו תאילנד PICK - UP 2014 01/09/2026 05:12:54
75017102 סיטרואן צרפת C5 AIRCROSS 2022 01/09/2026 05:12:53
1014838 סוזוקי הונגריה SX4 CROSSOVER 2016 01/09/2026 05:12:52
87175201 מיצובישי יפן ECLIPSE CROSS 2020 01/09/2026 05:12:52
1697585 קיה סלובקיה SPORTAGE 2017 01/09/2026 05:12:47
9076952 פולקסווגן ספרד POLO 2013 01/09/2026 05:12:44
52080001 יונדאי קוריאה הדרומית IONIQ HYBRID 2018 01/09/2026 05:12:44
87599003 מ.ג סין MG4 2025 01/09/2026 05:12:42
75616501 טויוטה טורקיה C-HR HYBRID 2019 01/09/2026 05:12:42
3283956 טויוטה טורקיה COROLLA 2004 01/09/2026 05:12:38
2730770 טויוטה יפן COROLLA 2009 01/09/2026 05:12:37
1262875 סיטרואן צרפת C4 2011 01/09/2026 05:12:36
50391904 טויוטה יפן COROLLA CROSS 2026 01/09/2026 05:12:34
2853031 יונדאי קוריאה הדרומית I35 2014 01/09/2026 05:12:32
67162502 טסלה ארהב" MODEL 3 2021 01/09/2026 05:12:32
7452532 סוזוקי הונגריה SX4 CROSSOVER 2014 01/09/2026 05:12:29
39893803 ב מ וו סין IX3 2023 01/09/2026 05:12:28
4240665 שברולט קוריאה הדרומית AVEO 2008 01/09/2026 05:12:28
8575164 טויוטה יפן COROLLA 2008 01/09/2026 05:12:27
1375110 טויוטה יפן COROLLA 2001 01/09/2026 05:12:26
7682380 פיאט פולין FIAT 500 1.2 2016 01/09/2026 05:12:24
8767852 פולקסווגן מקסיקה JETTA 2016 01/09/2026 05:12:22
1124511 יונדאי טורקיה I20 2012 01/09/2026 05:12:17
3462623 סובארו יפן B4 2003 01/09/2026 05:12:17
54750102 יונדאי קוריאה הדרומית IONIQ HYBRID 2021 01/09/2026 05:12:15
87035803 וויה סין DREAM 2024 01/09/2026 05:12:14
50809203 דאצ'יה רומניה DUSTER 2023 01/09/2026 05:12:13
4019153 אאודי גרמניה A3 2014 01/09/2026 05:12:12
60170701 מזדה יפן MAZDA 6 2019 01/09/2026 05:12:10
4245974 טויוטה יפן PRIUS HYBRID 2011 01/09/2026 05:12:08
6857554 מזדה יפן MAZDA 2 2015 01/09/2026 05:12:07
2465015 גיפ-ישראל - 1995 01/09/2026 05:12:03
1349768 סוזוקי יפן SX4 2009 01/09/2026 05:12:02
36798204 מ.ג סין ZS 2026 01/09/2026 05:12:00
8364779 טויוטה צ'כיה AYGO 2012 01/09/2026 05:11:58
4430639 פיג'ו צרפת 3008 2016 01/09/2026 05:11:57
1266564 איסוזו תאילנד PICK-UP 2008 01/09/2026 05:11:57
1118075 סיטרואן צרפת C4 2011 01/09/2026 05:11:56
1031610 טויוטה יפן COROLLA 2001 01/09/2026 05:11:54
2839454 רנו ספרד CAPTUR 2014 01/09/2026 05:11:54
64872402 קיה קוריאה הדרומית STONIC 2021 01/09/2026 05:11:53
5367134 סובארו יפן IMPREZA 2015 01/09/2026 05:11:51
6587072 מרצדס ספרד 111CDI VITO 2010 01/09/2026 05:11:49
4825361 מזדה יפן MAZDA3-SPORT 2007 01/09/2026 05:11:48
1137863 איווקו איטליה - 2008 01/09/2026 05:11:48
57503703 מרצדס גרמניה EQA250 2024 01/09/2026 05:11:45
1315073 יונדאי צ'כיה I30 2010 01/09/2026 05:11:43
40876901 קיה סלובקיה SPORTAGE 2018 01/09/2026 05:11:42
79851403 מזדה יפן MAZDA CX-5 2024 01/09/2026 05:11:40
1040475 פיג'ו ספרד NEW PARTNER 2011 01/09/2026 05:11:39
7604155 מרצדס בנץ גרמנ - 2017 01/09/2026 05:11:39
33234603 צ'רי סין TIGGO 7 PRO 2023 01/09/2026 05:11:38
4648068 הונדה בריטניה CIVIC 2008 01/09/2026 05:11:33
1122172 קיה קוריאה הדרומית RI0 2009 01/09/2026 05:11:32
8359630 פולריס - 2015 01/09/2026 05:11:30
79211703 סוזוקי הונגריה VITARA 2024 01/09/2026 05:11:28
82798603 בי ווי די סין ATTO 3 2024 01/09/2026 05:11:28
5666133 קיה סלובקיה SPORTAGE 2015 01/09/2026 05:11:26
72157701 שברולט קוריאה הדרומית SPARK 2020 01/09/2026 05:11:26
25694904 צ'רי סין TIGGO 4 PRO 2025 01/09/2026 05:11:21
7817618 פולקסווגן גרמניה GOLF 1999 01/09/2026 05:11:21
92807201 פורד גרמניה - 2021 01/09/2026 05:11:20
37495604 ב מ וו מקסיקו 218I 2025 01/09/2026 05:11:19
74213402 קיה קוריאה הדרומית PICANTO 2021 01/09/2026 05:11:18
56364103 טויוטה יפן RAV 4 HYBRID 2023 01/09/2026 05:11:16
וואטסאפ